Time,TemperatureF,DewpointF,PressureIn,WindDirection,WindDirectionDegrees,WindSpeedMPH,WindSpeedGustMPH,Humidity,HourlyPrecipIn,Conditions,Clouds,dailyrainin,SoftwareType,DateUTC
2013-01-15 00:00:00,74.7,74.7,30.03,East,97,6.0,6.0,100,0.00,,,0.00,Wunderground v.1.15,2013-01-15 05:00:00,
2013-01-15 00:05:00,74.7,74.7,30.03,NE,56,5.0,9.0,100,0.00,,,0.00,Wunderground v.1.15,2013-01-15 05:05:00,
2013-01-15 00:15:00,74.7,74.7,30.03,ESE,106,6.0,8.0,100,0.00,,,0.00,Wunderground v.1.15,2013-01-15 05:15:00,
2013-01-15 00:25:00,74.7,74.7,30.03,ESE,112,7.0,7.0,100,0.00,,,0.00,Wunderground v.1.15,2013-01-15 05:25:00,
2013-01-15 00:30:00,74.9,74.9,30.03,ESE,106,7.0,7.0,100,0.00,,,0.00,Wunderground v.1.15,2013-01-15 05:30:00,
2013-01-15 00:40:00,74.9,74.9,30.03,East,96,5.0,6.0,100,0.00,,,0.00,Wunderground v.1.15,2013-01-15 05:40:00,
2013-01-15 00:50:00,75.1,75.1,30.03,ESE,103,6.0,6.0,100,0.00,,,0.00,Wunderground v.1.15,2013-01-15 05:50:00,
2013-01-15 01:00:00,74.9,74.9,30.03,ENE,75,6.0,6.0,100,0.00,,,0.00,Wunderground v.1.15,2013-01-15 06:00:00,
2013-01-15 01:05:00,75.1,75.1,30.03,ESE,103,6.0,6.0,100,0.00,,,0.00,Wunderground v.1.15,2013-01-15 06:05:00,
2013-01-15 01:15:00,75.1,75.1,30.02,East,90,6.0,6.0,100,0.00,,,0.00,Wunderground v.1.15,2013-01-15 06:15:00,
2013-01-15 01:25:00,75.1,75.1,30.02,ESE,113,5.0,6.0,100,0.00,,,0.00,Wunderground v.1.15,2013-01-15 06:25:00,
2013-01-15 01:30:00,75.1,75.1,30.02,ENE,73,6.0,6.0,100,0.00,,,0.00,Wunderground v.1.15,2013-01-15 06:30:00,
2013-01-15 01:40:00,75.3,75.3,30.02,SE,130,7.0,7.0,100,0.00,,,0.00,Wunderground v.1.15,2013-01-15 06:40:00,
2013-01-15 01:50:00,75.3,75.3,30.01,East,97,6.0,7.0,100,0.00,,,0.00,Wunderground v.1.15,2013-01-15 06:50:00,
2013-01-15 02:00:00,75.1,75.1,30.01,East,90,6.0,6.0,100,0.00,,,0.00,Wunderground v.1.15,2013-01-15 07:00:00,
2013-01-15 02:10:00,75.1,75.1,30.01,SE,126,6.0,7.0,100,0.00,,,0.00,Wunderground v.1.15,2013-01-15 07:10:00,
2013-01-15 02:15:00,75.1,75.1,30.01,East,99,6.0,7.0,100,0.00,,,0.00,Wunderground v.1.15,2013-01-15 07:15:00,
2013-01-15 02:25:00,75.1,75.1,30.01,East,96,6.0,8.0,100,0.00,,,0.00,Wunderground v.1.15,2013-01-15 07:25:00,
2013-01-15 02:35:00,75.1,75.1,30.00,East,92,6.0,6.0,100,0.00,,,0.00,Wunderground v.1.15,2013-01-15 07:35:00,
2013-01-15 02:45:00,74.9,74.9,30.00,ENE,68,5.0,6.0,100,0.00,,,0.00,Wunderground v.1.15,2013-01-15 07:45:00,
2013-01-15 02:55:00,74.9,74.9,30.00,East,100,5.0,7.0,100,0.00,,,0.00,Wunderground v.1.15,2013-01-15 07:55:00,
2013-01-15 03:05:00,74.9,74.9,30.00,East,92,5.0,6.0,100,0.00,,,0.00,Wunderground v.1.15,2013-01-15 08:05:00,
2013-01-15 03:15:00,75.1,75.1,30.00,East,83,4.0,8.0,100,0.00,,,0.00,Wunderground v.1.15,2013-01-15 08:15:00,
2013-01-15 03:25:00,75.1,75.1,30.00,East,97,5.0,8.0,100,0.00,,,0.00,Wunderground v.1.15,2013-01-15 08:25:00,
2013-01-15 03:30:00,74.7,74.7,29.99,ESE,102,5.0,13.0,100,0.00,,,0.00,Wunderground v.1.15,2013-01-15 08:30:00,
2013-01-15 03:40:00,74.7,74.7,29.99,ESE,104,6.0,6.0,100,0.00,,,0.00,Wunderground v.1.15,2013-01-15 08:40:00,
2013-01-15 03:50:00,74.7,74.7,29.99,ENE,66,6.0,7.0,100,0.00,,,0.00,Wunderground v.1.15,2013-01-15 08:50:00,
2013-01-15 04:00:00,74.7,74.7,29.99,East,95,7.0,11.0,100,0.00,,,0.00,Wunderground v.1.15,2013-01-15 09:00:00,
2013-01-15 04:10:00,74.7,74.7,29.99,ENE,73,7.0,7.0,100,0.00,,,0.00,Wunderground v.1.15,2013-01-15 09:10:00,
2013-01-15 04:15:00,74.7,74.7,29.98,East,88,7.0,7.0,100,0.00,,,0.00,Wunderground v.1.15,2013-01-15 09:15:00,
2013-01-15 04:25:00,74.7,74.7,29.98,ESE,104,7.0,9.0,100,0.00,,,0.00,Wunderground v.1.15,2013-01-15 09:25:00,
2013-01-15 04:35:00,74.7,74.7,29.98,ESE,123,7.0,8.0,100,0.00,,,0.00,Wunderground v.1.15,2013-01-15 09:35:00,
2013-01-15 04:40:00,74.7,74.7,29.98,East,92,6.0,7.0,100,0.00,,,0.00,Wunderground v.1.15,2013-01-15 09:40:00,
2013-01-15 04:50:00,74.6,74.6,29.98,ESE,116,6.0,6.0,100,0.00,,,0.00,Wunderground v.1.15,2013-01-15 09:50:00,
2013-01-15 04:55:00,74.7,74.7,29.98,East,90,6.0,6.0,100,0.00,,,0.00,Wunderground v.1.15,2013-01-15 09:55:00,
2013-01-15 05:05:00,74.7,74.7,29.98,ESE,116,6.0,8.0,100,0.00,,,0.00,Wunderground v.1.15,2013-01-15 10:05:00,
2013-01-15 05:15:00,74.7,74.7,29.98,East,97,7.0,7.0,100,0.00,,,0.00,Wunderground v.1.15,2013-01-15 10:15:00,
2013-01-15 05:20:00,74.7,74.7,29.98,ESE,104,6.0,6.0,100,0.00,,,0.00,Wunderground v.1.15,2013-01-15 10:20:00,
2013-01-15 05:30:00,74.6,74.6,29.98,ESE,109,6.0,6.0,100,0.00,,,0.00,Wunderground v.1.15,2013-01-15 10:30:00,
2013-01-15 05:40:00,74.7,74.7,29.98,East,97,5.0,5.0,100,0.00,,,0.00,Wunderground v.1.15,2013-01-15 10:40:00,
2013-01-15 05:50:00,74.6,74.6,29.99,ESE,113,5.0,7.0,100,0.00,,,0.00,Wunderground v.1.15,2013-01-15 10:50:00,
2013-01-15 06:00:00,74.7,74.7,29.99,East,95,5.0,5.0,100,0.00,,,0.00,Wunderground v.1.15,2013-01-15 11:00:00,
2013-01-15 06:10:00,74.7,74.7,29.99,SE,128,6.0,6.0,100,0.00,,,0.00,Wunderground v.1.15,2013-01-15 11:10:00,
2013-01-15 06:15:00,74.7,74.7,29.99,East,97,6.0,6.0,100,0.00,,,0.00,Wunderground v.1.15,2013-01-15 11:15:00,
2013-01-15 06:20:00,74.7,74.7,29.99,SE,124,6.0,11.0,100,0.00,,,0.00,Wunderground v.1.15,2013-01-15 11:20:00,
2013-01-15 06:30:00,74.9,74.9,29.99,East,100,6.0,7.0,100,0.00,,,0.00,Wunderground v.1.15,2013-01-15 11:30:00,
2013-01-15 06:35:00,74.9,74.9,29.99,ENE,72,5.0,7.0,100,0.00,,,0.00,Wunderground v.1.15,2013-01-15 11:35:00,
2013-01-15 06:45:00,74.7,74.7,30.00,ESE,102,5.0,6.0,100,0.00,,,0.00,Wunderground v.1.15,2013-01-15 11:45:00,
2013-01-15 06:55:00,74.7,74.7,30.00,ESE,109,5.0,7.0,100,0.00,,,0.00,Wunderground v.1.15,2013-01-15 11:55:00,
2013-01-15 07:00:00,74.9,74.9,30.00,ESE,117,6.0,7.0,100,0.00,,,0.00,Wunderground v.1.15,2013-01-15 12:00:00,
2013-01-15 07:10:00,74.9,74.9,30.00,East,100,5.0,6.0,100,0.00,,,0.00,Wunderground v.1.15,2013-01-15 12:10:00,
2013-01-15 07:20:00,74.9,74.9,30.00,ESE,103,5.0,6.0,100,0.00,,,0.00,Wunderground v.1.15,2013-01-15 12:20:00,
2013-01-15 07:30:00,74.9,74.9,30.01,ESE,102,5.0,6.0,100,0.00,,,0.00,Wunderground v.1.15,2013-01-15 12:30:00,
2013-01-15 07:35:00,75.3,75.3,30.01,East,80,6.0,6.0,100,0.00,,,0.00,Wunderground v.1.15,2013-01-15 12:35:00,
2013-01-15 07:45:00,75.4,75.4,30.01,ESE,104,6.0,8.0,100,0.00,,,0.00,Wunderground v.1.15,2013-01-15 12:45:00,
2013-01-15 07:55:00,76.0,76.0,30.01,East,79,3.0,4.0,100,0.00,,,0.00,Wunderground v.1.15,2013-01-15 12:55:00,
2013-01-15 08:05:00,76.0,76.0,30.02,ENE,72,4.0,8.0,100,0.00,,,0.00,Wunderground v.1.15,2013-01-15 13:05:00,
2013-01-15 08:10:00,76.0,76.0,30.02,ESE,104,5.0,5.0,100,0.00,,,0.00,Wunderground v.1.15,2013-01-15 13:10:00,
2013-01-15 08:20:00,76.3,76.3,30.02,ESE,114,5.0,10.0,100,0.00,,,0.00,Wunderground v.1.15,2013-01-15 13:20:00,
2013-01-15 08:30:00,76.7,76.7,30.03,East,86,3.0,3.0,100,0.00,,,0.00,Wunderground v.1.15,2013-01-15 13:30:00,
2013-01-15 08:40:00,76.8,76.8,30.03,ESE,103,4.0,6.0,100,0.00,,,0.00,Wunderground v.1.15,2013-01-15 13:40:00,
2013-01-15 08:50:00,77.0,77.0,30.03,ENE,76,4.0,7.0,100,0.00,,,0.00,Wunderground v.1.15,2013-01-15 13:50:00,
2013-01-15 08:55:00,77.2,77.2,30.03,East,82,4.0,7.0,100,0.00,,,0.00,Wunderground v.1.15,2013-01-15 13:55:00,
2013-01-15 09:05:00,77.4,77.4,30.03,ESE,113,4.0,4.0,100,0.00,,,0.00,Wunderground v.1.15,2013-01-15 14:05:00,
2013-01-15 09:15:00,77.7,77.7,30.03,ESE,116,4.0,6.0,100,0.00,,,0.00,Wunderground v.1.15,2013-01-15 14:15:00,
2013-01-15 09:20:00,77.7,77.7,30.03,East,99,5.0,5.0,100,0.00,,,0.00,Wunderground v.1.15,2013-01-15 14:20:00,
2013-01-15 09:25:00,77.9,77.9,30.03,East,82,4.0,5.0,100,0.00,,,0.00,Wunderground v.1.15,2013-01-15 14:25:00,
2013-01-15 09:35:00,78.1,78.1,30.04,SE,136,4.0,7.0,100,0.00,,,0.00,Wunderground v.1.15,2013-01-15 14:35:00,
2013-01-15 09:40:00,78.1,78.1,30.04,East,86,4.0,4.0,100,0.00,,,0.00,Wunderground v.1.15,2013-01-15 14:40:00,
2013-01-15 09:50:00,78.5,78.5,30.04,ENE,78,4.0,5.0,100,0.00,,,0.00,Wunderground v.1.15,2013-01-15 14:50:00,
2013-01-15 09:55:00,78.5,78.5,30.04,East,83,3.0,5.0,100,0.00,,,0.00,Wunderground v.1.15,2013-01-15 14:55:00,
2013-01-15 10:00:00,78.6,78.6,30.03,East,99,3.0,4.0,100,0.00,,,0.00,Wunderground v.1.15,2013-01-15 15:00:00,
2013-01-15 10:10:00,78.6,78.6,30.03,ESE,106,3.0,3.0,100,0.00,,,0.00,Wunderground v.1.15,2013-01-15 15:10:00,
2013-01-15 10:15:00,78.6,78.6,30.03,ESE,107,3.0,3.0,100,0.00,,,0.00,Wunderground v.1.15,2013-01-15 15:15:00,
2013-01-15 10:20:00,78.6,78.6,30.03,ESE,113,3.0,5.0,100,0.00,,,0.00,Wunderground v.1.15,2013-01-15 15:20:00,
2013-01-15 10:25:00,78.8,78.8,30.03,ENE,71,3.0,5.0,100,0.00,,,0.00,Wunderground v.1.15,2013-01-15 15:25:00,
2013-01-15 10:35:00,78.6,78.6,30.03,ESE,113,3.0,4.0,100,0.00,,,0.00,Wunderground v.1.15,2013-01-15 15:35:00,
2013-01-15 10:40:00,78.8,78.8,30.03,East,80,4.0,4.0,100,0.00,,,0.00,Wunderground v.1.15,2013-01-15 15:40:00,
2013-01-15 10:50:00,79.2,79.2,30.02,SE,133,3.0,3.0,100,0.00,,,0.00,Wunderground v.1.15,2013-01-15 15:50:00,
2013-01-15 10:55:00,79.4,79.4,30.02,East,86,3.0,3.0,100,0.00,,,0.00,Wunderground v.1.15,2013-01-15 15:55:00,
2013-01-15 11:05:00,79.4,79.4,30.02,ESE,110,2.0,10.0,100,0.00,,,0.00,Wunderground v.1.15,2013-01-15 16:05:00,
2013-01-15 11:15:00,78.6,78.6,30.01,East,95,4.0,4.0,100,0.00,,,0.00,Wunderground v.1.15,2013-01-15 16:15:00,
2013-01-15 11:25:00,77.6,77.6,30.01,ESE,112,5.0,10.0,100,0.00,,,0.00,Wunderground v.1.15,2013-01-15 16:25:00,
2013-01-15 11:35:00,77.9,77.9,30.01,ESE,103,7.0,7.0,100,0.00,,,0.00,Wunderground v.1.15,2013-01-15 16:35:00,
2013-01-15 11:40:00,78.6,78.6,30.01,SE,127,6.0,9.0,100,0.00,,,0.00,Wunderground v.1.15,2013-01-15 16:40:00,
2013-01-15 11:45:00,78.5,78.5,30.00,ENE,78,5.0,9.0,100,0.00,,,0.00,Wunderground v.1.15,2013-01-15 16:45:00,
2013-01-15 11:50:00,78.6,78.6,30.00,ESE,113,5.0,5.0,100,0.00,,,0.00,Wunderground v.1.15,2013-01-15 16:50:00,
2013-01-15 12:00:00,78.1,78.1,30.00,ENE,66,6.0,7.0,100,0.00,,,0.00,Wunderground v.1.15,2013-01-15 17:00:00,
2013-01-15 12:05:00,78.1,78.1,30.00,SE,130,7.0,10.0,100,0.00,,,0.00,Wunderground v.1.15,2013-01-15 17:05:00,
2013-01-15 12:15:00,78.3,78.3,29.99,East,95,6.0,10.0,100,0.00,,,0.00,Wunderground v.1.15,2013-01-15 17:15:00,
2013-01-15 12:20:00,78.1,78.1,29.99,ENE,71,6.0,7.0,100,0.00,,,0.00,Wunderground v.1.15,2013-01-15 17:20:00,
2013-01-15 12:25:00,78.1,78.1,29.99,East,83,6.0,7.0,100,0.00,,,0.00,Wunderground v.1.15,2013-01-15 17:25:00,
2013-01-15 12:35:00,78.3,78.3,29.98,East,89,5.0,6.0,100,0.00,,,0.00,Wunderground v.1.15,2013-01-15 17:35:00,
2013-01-15 12:45:00,78.5,78.5,29.98,East,96,5.0,8.0,100,0.00,,,0.00,Wunderground v.1.15,2013-01-15 17:45:00,
2013-01-15 12:50:00,78.5,78.5,29.98,ENE,64,6.0,6.0,100,0.00,,,0.00,Wunderground v.1.15,2013-01-15 17:50:00,
2013-01-15 12:55:00,78.5,78.5,29.98,East,88,6.0,6.0,100,0.00,,,0.00,Wunderground v.1.15,2013-01-15 17:55:00,
2013-01-15 13:00:00,78.5,78.5,29.97,ENE,73,5.0,5.0,100,0.00,,,0.00,Wunderground v.1.15,2013-01-15 18:00:00,
2013-01-15 13:10:00,78.6,78.6,29.97,ESE,113,4.0,4.0,100,0.00,,,0.00,Wunderground v.1.15,2013-01-15 18:10:00,
2013-01-15 13:20:00,78.6,78.6,29.97,ESE,119,5.0,6.0,100,0.00,,,0.00,Wunderground v.1.15,2013-01-15 18:20:00,
2013-01-15 13:30:00,78.6,78.6,29.97,NE,54,6.0,6.0,100,0.00,,,0.00,Wunderground v.1.15,2013-01-15 18:30:00,
2013-01-15 13:35:00,78.1,78.1,29.97,ENE,76,6.0,7.0,100,0.00,,,0.00,Wunderground v.1.15,2013-01-15 18:35:00,
2013-01-15 13:45:00,78.3,78.3,29.97,East,92,6.0,10.0,100,0.00,,,0.00,Wunderground v.1.15,2013-01-15 18:45:00,
2013-01-15 13:55:00,78.1,78.1,29.97,NE,54,6.0,8.0,100,0.00,,,0.00,Wunderground v.1.15,2013-01-15 18:55:00,
2013-01-15 14:05:00,78.3,78.3,29.97,ESE,114,5.0,10.0,100,0.00,,,0.00,Wunderground v.1.15,2013-01-15 19:05:00,
2013-01-15 14:15:00,77.9,77.9,29.96,East,95,5.0,6.0,100,0.00,,,0.00,Wunderground v.1.15,2013-01-15 19:15:00,
2013-01-15 14:20:00,77.4,77.4,29.96,ENE,61,4.0,6.0,100,0.00,,,0.00,Wunderground v.1.15,2013-01-15 19:20:00,
2013-01-15 14:30:00,76.7,76.7,29.96,NE,42,6.0,8.0,100,0.00,,,0.00,Wunderground v.1.15,2013-01-15 19:30:00,
2013-01-15 14:35:00,76.5,76.5,29.96,ENE,65,7.0,9.0,100,0.00,,,0.00,Wunderground v.1.15,2013-01-15 19:35:00,
2013-01-15 14:40:00,76.8,76.8,29.96,SE,131,7.0,9.0,100,0.00,,,0.00,Wunderground v.1.15,2013-01-15 19:40:00,
2013-01-15 14:45:00,76.7,76.7,29.96,East,85,7.0,9.0,100,0.00,,,0.00,Wunderground v.1.15,2013-01-15 19:45:00,
2013-01-15 14:50:00,76.7,76.7,29.96,ENE,59,7.0,8.0,100,0.00,,,0.00,Wunderground v.1.15,2013-01-15 19:50:00,
2013-01-15 15:00:00,76.8,76.8,29.95,ENE,76,6.0,8.0,100,0.00,,,0.00,Wunderground v.1.15,2013-01-15 20:00:00,
2013-01-15 15:10:00,77.2,77.2,29.95,East,90,6.0,6.0,100,0.00,,,0.00,Wunderground v.1.15,2013-01-15 20:10:00,
2013-01-15 15:20:00,77.2,77.2,29.96,East,82,6.0,6.0,100,0.00,,,0.00,Wunderground v.1.15,2013-01-15 20:20:00,
2013-01-15 15:30:00,77.6,77.6,29.96,East,95,6.0,6.0,100,0.00,,,0.00,Wunderground v.1.15,2013-01-15 20:30:00,
2013-01-15 15:35:00,77.9,77.9,29.96,NE,54,5.0,8.0,100,0.00,,,0.00,Wunderground v.1.15,2013-01-15 20:35:00,
2013-01-15 15:40:00,77.9,77.9,29.96,ENE,76,4.0,4.0,100,0.00,,,0.00,Wunderground v.1.15,2013-01-15 20:40:00,
2013-01-15 15:50:00,77.4,77.4,29.96,NE,48,6.0,6.0,100,0.00,,,0.00,Wunderground v.1.15,2013-01-15 20:50:00,
2013-01-15 16:00:00,77.2,77.2,29.96,East,79,6.0,6.0,100,0.00,,,0.00,Wunderground v.1.15,2013-01-15 21:00:00,
2013-01-15 16:10:00,77.2,77.2,29.96,ESE,113,6.0,7.0,100,0.00,,,0.00,Wunderground v.1.15,2013-01-15 21:10:00,
2013-01-15 16:20:00,76.7,76.7,29.97,ENE,65,7.0,7.0,100,0.00,,,0.00,Wunderground v.1.15,2013-01-15 21:20:00,
2013-01-15 16:30:00,76.5,76.5,29.97,East,80,6.0,6.0,100,0.00,,,0.00,Wunderground v.1.15,2013-01-15 21:30:00,
2013-01-15 16:40:00,76.8,76.8,29.97,East,90,4.0,6.0,100,0.00,,,0.00,Wunderground v.1.15,2013-01-15 21:40:00,
2013-01-15 16:45:00,77.2,77.2,29.98,East,86,5.0,6.0,100,0.00,,,0.00,Wunderground v.1.15,2013-01-15 21:45:00,
2013-01-15 16:55:00,77.0,77.0,29.98,East,88,6.0,8.0,100,0.00,,,0.00,Wunderground v.1.15,2013-01-15 21:55:00,
2013-01-15 17:05:00,76.7,76.7,29.98,ENE,76,6.0,7.0,100,0.00,,,0.00,Wunderground v.1.15,2013-01-15 22:05:00,
2013-01-15 17:15:00,76.3,76.3,29.98,ENE,66,6.0,6.0,100,0.00,,,0.00,Wunderground v.1.15,2013-01-15 22:15:00,
2013-01-15 17:20:00,76.1,76.1,29.98,ENE,72,5.0,5.0,100,0.00,,,0.00,Wunderground v.1.15,2013-01-15 22:20:00,
2013-01-15 17:30:00,76.1,76.1,29.98,ENE,71,6.0,6.0,100,0.00,,,0.00,Wunderground v.1.15,2013-01-15 22:30:00,
2013-01-15 17:40:00,76.1,76.1,29.98,East,83,6.0,6.0,100,0.00,,,0.00,Wunderground v.1.15,2013-01-15 22:40:00,
2013-01-15 17:45:00,76.0,76.0,29.98,ESE,113,6.0,6.0,100,0.00,,,0.00,Wunderground v.1.15,2013-01-15 22:45:00,
2013-01-15 17:55:00,76.0,76.0,29.98,ENE,65,7.0,10.0,100,0.00,,,0.00,Wunderground v.1.15,2013-01-15 22:55:00,
2013-01-15 18:05:00,75.8,75.8,29.99,ESE,123,7.0,7.0,100,0.00,,,0.00,Wunderground v.1.15,2013-01-15 23:05:00,
2013-01-15 18:10:00,75.8,75.8,29.99,ESE,109,7.0,11.0,100,0.00,,,0.00,Wunderground v.1.15,2013-01-15 23:10:00,
2013-01-15 18:20:00,75.8,75.8,29.99,ENE,72,7.0,11.0,100,0.00,,,0.00,Wunderground v.1.15,2013-01-15 23:20:00,
2013-01-15 18:30:00,75.8,75.8,29.99,East,83,7.0,7.0,100,0.00,,,0.00,Wunderground v.1.15,2013-01-15 23:30:00,
2013-01-15 18:35:00,75.6,75.6,29.99,ENE,72,7.0,7.0,100,0.00,,,0.00,Wunderground v.1.15,2013-01-15 23:35:00,
2013-01-15 18:45:00,75.6,75.6,29.98,ENE,76,7.0,8.0,100,0.00,,,0.00,Wunderground v.1.15,2013-01-15 23:45:00,
2013-01-15 18:55:00,75.6,75.6,29.98,ESE,107,6.0,7.0,100,0.00,,,0.00,Wunderground v.1.15,2013-01-15 23:55:00,
2013-01-15 19:00:00,75.6,75.6,29.98,ESE,113,7.0,8.0,100,0.00,,,0.00,Wunderground v.1.15,2013-01-16 00:00:00,
2013-01-15 19:10:00,75.6,75.6,29.98,ESE,109,5.0,7.0,100,0.00,,,0.00,Wunderground v.1.15,2013-01-16 00:10:00,
2013-01-15 19:20:00,75.6,75.6,29.98,East,82,6.0,7.0,100,0.00,,,0.00,Wunderground v.1.15,2013-01-16 00:20:00,
2013-01-15 19:30:00,75.6,75.6,29.98,ENE,69,6.0,7.0,100,0.00,,,0.00,Wunderground v.1.15,2013-01-16 00:30:00,
2013-01-15 19:35:00,75.6,75.6,29.98,ENE,72,7.0,8.0,100,0.00,,,0.00,Wunderground v.1.15,2013-01-16 00:35:00,
2013-01-15 19:40:00,75.6,75.6,29.98,ESE,102,6.0,6.0,100,0.00,,,0.00,Wunderground v.1.15,2013-01-16 00:40:00,
2013-01-15 19:50:00,75.4,75.4,29.98,ESE,119,6.0,7.0,100,0.00,,,0.00,Wunderground v.1.15,2013-01-16 00:50:00,
2013-01-15 20:00:00,75.4,75.4,29.98,ESE,110,6.0,6.0,100,0.00,,,0.00,Wunderground v.1.15,2013-01-16 01:00:00,
2013-01-15 20:10:00,75.4,75.4,29.98,East,92,6.0,6.0,100,0.00,,,0.00,Wunderground v.1.15,2013-01-16 01:10:00,
2013-01-15 20:15:00,75.4,75.4,29.98,ESE,102,7.0,7.0,100,0.00,,,0.00,Wunderground v.1.15,2013-01-16 01:15:00,
2013-01-15 20:25:00,75.4,75.4,29.98,ENE,78,6.0,8.0,100,0.00,,,0.00,Wunderground v.1.15,2013-01-16 01:25:00,
2013-01-15 20:35:00,75.4,75.4,29.97,ENE,68,7.0,7.0,100,0.00,,,0.00,Wunderground v.1.15,2013-01-16 01:35:00,
2013-01-15 20:45:00,75.4,75.4,29.97,East,93,7.0,7.0,100,0.00,,,0.00,Wunderground v.1.15,2013-01-16 01:45:00,
2013-01-15 20:55:00,75.3,75.3,29.97,East,95,6.0,7.0,100,0.00,,,0.00,Wunderground v.1.15,2013-01-16 01:55:00,
2013-01-15 21:00:00,75.3,75.3,29.97,ENE,68,6.0,6.0,100,0.00,,,0.00,Wunderground v.1.15,2013-01-16 02:00:00,
2013-01-15 21:10:00,75.1,75.1,29.97,NE,54,5.0,5.0,100,0.00,,,0.00,Wunderground v.1.15,2013-01-16 02:10:00,
2013-01-15 21:20:00,75.3,75.3,29.97,East,89,6.0,13.0,100,0.00,,,0.00,Wunderground v.1.15,2013-01-16 02:20:00,
2013-01-15 21:25:00,75.1,75.1,29.97,East,83,6.0,13.0,100,0.00,,,0.00,Wunderground v.1.15,2013-01-16 02:25:00,
2013-01-15 21:35:00,75.3,75.3,29.96,ESE,116,6.0,7.0,100,0.00,,,0.00,Wunderground v.1.15,2013-01-16 02:35:00,
2013-01-15 21:45:00,75.1,75.1,29.96,ENE,78,6.0,6.0,100,0.00,,,0.00,Wunderground v.1.15,2013-01-16 02:45:00,
2013-01-15 21:55:00,75.1,75.1,29.96,East,96,6.0,6.0,100,0.00,,,0.00,Wunderground v.1.15,2013-01-16 02:55:00,
2013-01-15 22:05:00,75.1,75.1,29.95,East,93,6.0,8.0,100,0.00,,,0.00,Wunderground v.1.15,2013-01-16 03:05:00,
2013-01-15 22:10:00,75.1,75.1,29.95,ESE,110,6.0,8.0,100,0.00,,,0.00,Wunderground v.1.15,2013-01-16 03:10:00,
2013-01-15 22:20:00,75.1,75.1,29.95,East,96,7.0,7.0,100,0.00,,,0.00,Wunderground v.1.15,2013-01-16 03:20:00,
2013-01-15 22:25:00,75.1,75.1,29.95,East,79,7.0,8.0,100,0.00,,,0.00,Wunderground v.1.15,2013-01-16 03:25:00,
2013-01-15 22:35:00,75.1,75.1,29.95,East,86,6.0,8.0,100,0.00,,,0.00,Wunderground v.1.15,2013-01-16 03:35:00,
2013-01-15 22:45:00,75.1,75.1,29.95,East,79,7.0,8.0,100,0.00,,,0.00,Wunderground v.1.15,2013-01-16 03:45:00,
2013-01-15 22:55:00,75.1,75.1,29.95,ESE,116,7.0,7.0,100,0.00,,,0.00,Wunderground v.1.15,2013-01-16 03:55:00,
2013-01-15 23:05:00,75.1,75.1,29.95,ESE,110,6.0,7.0,100,0.00,,,0.00,Wunderground v.1.15,2013-01-16 04:05:00,
2013-01-15 23:10:00,75.3,75.3,29.95,ENE,66,5.0,5.0,100,0.00,,,0.00,Wunderground v.1.15,2013-01-16 04:10:00,
2013-01-15 23:20:00,75.1,75.1,29.94,East,97,6.0,7.0,100,0.00,,,0.00,Wunderground v.1.15,2013-01-16 04:20:00,
2013-01-15 23:30:00,75.3,75.3,29.95,East,93,7.0,7.0,100,0.00,,,0.00,Wunderground v.1.15,2013-01-16 04:30:00,
2013-01-15 23:35:00,75.4,75.4,29.95,ESE,107,7.0,7.0,100,0.00,,,0.00,Wunderground v.1.15,2013-01-16 04:35:00,
2013-01-15 23:45:00,75.4,75.4,29.94,ESE,102,5.0,6.0,100,0.00,,,0.00,Wunderground v.1.15,2013-01-16 04:45:00,
2013-01-15 23:50:00,75.3,75.3,29.94,East,96,6.0,7.0,100,0.00,,,0.00,Wunderground v.1.15,2013-01-16 04:50:00,